createdAt,value
2022-08-26T00:00:08.258Z,20.77
2022-08-26T00:02:40.620Z,25.60
2022-08-26T00:05:09.532Z,22.60
2022-08-26T00:07:37.190Z,24.63
2022-08-26T00:10:07.670Z,18.97
2022-08-26T00:12:37.379Z,17.67
2022-08-26T00:15:07.421Z,23.30
2022-08-26T00:17:35.465Z,25.23
2022-08-26T00:20:04.037Z,21.83
2022-08-26T00:22:31.800Z,18.30
2022-08-26T00:24:59.502Z,18.33
2022-08-26T00:27:28.522Z,22.00
2022-08-26T00:29:56.236Z,20.37
2022-08-26T00:32:24.502Z,20.63
2022-08-26T00:34:53.835Z,18.43
2022-08-26T00:37:21.891Z,23.50
2022-08-26T00:39:50.197Z,20.67
2022-08-26T00:42:17.922Z,22.90
2022-08-26T00:44:47.126Z,22.00
2022-08-26T00:47:23.919Z,20.20
2022-08-26T00:49:52.518Z,19.07
2022-08-26T00:52:23.075Z,20.17
2022-08-26T00:54:54.439Z,24.00
2022-08-26T00:57:23.923Z,29.43
2022-08-26T00:59:57.807Z,25.60
2022-08-26T01:02:26.268Z,22.93
2022-08-26T01:04:59.904Z,20.50
2022-08-26T01:07:30.167Z,18.80
2022-08-26T01:10:01.249Z,19.43
2022-08-26T01:12:32.803Z,19.93
2022-08-26T01:15:03.134Z,23.77
2022-08-26T01:17:33.836Z,21.77
2022-08-26T01:20:07.607Z,18.70
2022-08-26T01:22:47.077Z,26.67
2022-08-26T01:25:15.824Z,20.43
2022-08-26T01:27:44.417Z,16.57
2022-08-26T01:30:17.736Z,18.60
2022-08-26T01:32:46.650Z,18.90
2022-08-26T01:35:14.486Z,21.30
2022-08-26T01:37:44.299Z,22.87
2022-08-26T01:40:17.541Z,17.53
2022-08-26T01:42:46.726Z,20.70
2022-08-26T01:45:19.468Z,22.90
2022-08-26T01:47:48.485Z,19.33
2022-08-26T01:50:28.221Z,19.40
2022-08-26T01:53:03.279Z,16.90
2022-08-26T01:55:34.202Z,22.77
2022-08-26T01:58:05.789Z,22.40
2022-08-26T02:00:34.833Z,24.10
2022-08-26T02:03:17.596Z,18.50
2022-08-26T02:05:48.761Z,19.97
2022-08-26T02:08:24.874Z,21.70
2022-08-26T02:10:54.797Z,19.23
2022-08-26T02:13:23.683Z,20.20
2022-08-26T02:15:52.771Z,18.90
2022-08-26T02:18:20.635Z,18.60
2022-08-26T02:20:53.751Z,26.70
2022-08-26T02:23:23.947Z,25.47
2022-08-26T02:25:57.883Z,20.87
2022-08-26T02:28:29.503Z,20.50
2022-08-26T02:30:57.413Z,20.57
2022-08-26T02:33:25.543Z,23.43
2022-08-26T02:35:53.284Z,22.37
2022-08-26T02:38:23.328Z,23.83
2022-08-26T02:40:51.029Z,19.60
2022-08-26T02:43:18.734Z,21.23
2022-08-26T02:45:51.847Z,20.77
2022-08-26T02:48:21.453Z,25.53
2022-08-26T02:50:49.532Z,23.67
2022-08-26T02:53:20.046Z,20.70
2022-08-26T02:55:54.062Z,17.60
2022-08-26T02:58:22.168Z,21.17
2022-08-26T03:00:52.512Z,23.10
2022-08-26T03:03:23.585Z,19.40
2022-08-26T03:05:51.540Z,18.13
2022-08-26T03:08:19.252Z,24.10
2022-08-26T03:10:48.114Z,22.80
2022-08-26T03:13:18.552Z,23.03
2022-08-26T03:15:47.683Z,24.33
2022-08-26T03:18:16.023Z,23.90
2022-08-26T03:20:44.019Z,24.00
2022-08-26T03:23:12.417Z,29.10
2022-08-26T03:25:40.128Z,22.33
2022-08-26T03:28:07.856Z,19.87
2022-08-26T03:30:45.353Z,22.37
2022-08-26T03:33:14.167Z,20.23
2022-08-26T03:35:45.139Z,21.80
2022-08-26T03:38:12.942Z,25.23
2022-08-26T03:40:40.953Z,22.47
2022-08-26T03:43:09.574Z,17.50
2022-08-26T03:45:39.474Z,23.30
2022-08-26T03:48:09.047Z,19.60
2022-08-26T03:50:36.986Z,20.50
2022-08-26T03:53:07.538Z,22.77
2022-08-26T03:55:41.199Z,17.93
2022-08-26T03:58:08.836Z,27.40
2022-08-26T04:00:36.933Z,22.80
2022-08-26T04:03:06.082Z,28.20
2022-08-26T04:05:38.453Z,22.87
2022-08-26T04:08:06.448Z,19.10
2022-08-26T04:10:34.053Z,20.13
2022-08-26T04:13:02.440Z,24.70
2022-08-26T04:15:30.360Z,27.30
2022-08-26T04:17:58.249Z,19.27
2022-08-26T04:20:27.976Z,26.37
2022-08-26T04:22:55.816Z,23.03
2022-08-26T04:25:24.331Z,23.07
2022-08-26T04:27:52.282Z,20.63
2022-08-26T04:30:21.198Z,23.67
2022-08-26T04:32:49.555Z,26.47
2022-08-26T04:35:17.441Z,31.50
2022-08-26T04:37:46.552Z,28.00
2022-08-26T04:40:14.658Z,25.20
2022-08-26T04:42:42.587Z,23.40
2022-08-26T04:45:11.899Z,22.23
2022-08-26T04:47:39.584Z,26.77
2022-08-26T04:50:09.030Z,29.03
2022-08-26T04:52:38.694Z,32.80
2022-08-26T04:55:08.753Z,26.13
2022-08-26T04:57:36.608Z,36.90
2022-08-26T05:00:06.029Z,35.67
2022-08-26T05:02:34.223Z,36.70
2022-08-26T05:05:01.966Z,25.50
2022-08-26T05:07:30.201Z,25.07
2022-08-26T05:10:00.188Z,18.67
2022-08-26T05:12:29.329Z,22.33
2022-08-26T05:14:57.270Z,17.60
2022-08-26T05:17:25.741Z,17.90
2022-08-26T05:19:53.598Z,23.57
2022-08-26T05:22:21.222Z,26.50
2022-08-26T05:24:49.289Z,27.80
2022-08-26T05:27:16.925Z,17.93
2022-08-26T05:29:46.736Z,23.40
2022-08-26T05:32:22.039Z,25.33
2022-08-26T05:34:49.709Z,30.53
2022-08-26T05:37:21.074Z,21.37
2022-08-26T05:39:51.015Z,26.50
2022-08-26T05:42:19.893Z,26.60
2022-08-26T05:44:53.984Z,24.33
2022-08-26T05:47:24.165Z,23.40
2022-08-26T05:49:52.027Z,23.40
2022-08-26T05:52:19.946Z,19.97
2022-08-26T05:54:47.845Z,25.50
2022-08-26T05:57:15.667Z,24.37
2022-08-26T05:59:44.054Z,25.57
2022-08-26T06:02:14.982Z,27.50
2022-08-26T06:04:43.329Z,24.90
2022-08-26T06:07:11.791Z,23.43
2022-08-26T06:09:41.459Z,25.93
2022-08-26T06:12:09.220Z,22.60
2022-08-26T06:14:36.984Z,26.63
2022-08-26T06:17:04.644Z,25.93
2022-08-26T06:19:34.419Z,27.07
2022-08-26T06:22:23.564Z,21.53
2022-08-26T06:25:08.941Z,22.30
2022-08-26T06:27:37.734Z,23.47
2022-08-26T06:30:06.428Z,24.40
2022-08-26T06:32:34.062Z,30.43
2022-08-26T06:35:03.109Z,23.80
2022-08-26T06:37:30.748Z,23.23
2022-08-26T06:39:58.657Z,22.70
2022-08-26T06:42:26.368Z,27.30
2022-08-26T06:44:54.274Z,27.27
2022-08-26T06:47:22.143Z,23.87
2022-08-26T06:49:50.344Z,27.10
2022-08-26T06:52:24.578Z,22.40
2022-08-26T06:54:52.372Z,25.53
2022-08-26T06:57:20.761Z,24.87
2022-08-26T06:59:51.267Z,23.20
2022-08-26T07:02:19.532Z,23.70
2022-08-26T07:04:48.474Z,26.00
2022-08-26T07:07:21.652Z,19.67
2022-08-26T07:09:52.620Z,22.87
2022-08-26T07:12:20.527Z,24.17
2022-08-26T07:14:48.415Z,27.33
2022-08-26T07:17:16.081Z,25.30
2022-08-26T07:19:44.133Z,18.20
2022-08-26T07:22:11.939Z,19.70
2022-08-26T07:24:42.356Z,20.03
2022-08-26T07:27:13.018Z,21.87
2022-08-26T07:29:42.309Z,19.80
2022-08-26T07:32:11.538Z,16.70
2022-08-26T07:34:39.678Z,20.53
2022-08-26T07:37:09.545Z,18.77
2022-08-26T07:39:37.613Z,16.63
2022-08-26T07:42:10.679Z,14.37
2022-08-26T07:44:39.632Z,14.13
2022-08-26T07:47:24.269Z,11.53
2022-08-26T07:49:55.274Z,18.73
2022-08-26T07:52:26.699Z,14.27
2022-08-26T07:54:55.927Z,11.73
2022-08-26T07:57:25.336Z,12.33
2022-08-26T07:59:54.951Z,13.40
2022-08-26T08:02:25.080Z,15.53
2022-08-26T08:04:54.483Z,11.37
2022-08-26T08:07:38.500Z,13.03
2022-08-26T08:10:13.402Z,15.37
2022-08-26T08:12:43.822Z,16.17
2022-08-26T08:15:13.788Z,13.17
2022-08-26T08:17:42.820Z,16.17
2022-08-26T08:20:12.411Z,11.20
2022-08-26T08:22:40.285Z,12.30
2022-08-26T08:25:10.532Z,10.13
2022-08-26T08:27:42.527Z,15.10
2022-08-26T08:30:13.779Z,9.13
2022-08-26T08:32:43.463Z,10.50
2022-08-26T08:35:12.552Z,11.43
2022-08-26T08:37:41.005Z,10.63
2022-08-26T08:40:10.051Z,9.77
2022-08-26T08:42:45.331Z,6.20
2022-08-26T08:45:21.097Z,8.80
2022-08-26T08:47:54.034Z,11.23
2022-08-26T08:50:27.308Z,11.80
2022-08-26T08:53:08.825Z,9.03
2022-08-26T08:55:45.516Z,9.00
2022-08-26T08:58:19.213Z,10.40
2022-08-26T09:00:52.370Z,13.50
2022-08-26T09:03:38.630Z,14.87
2022-08-26T09:06:16.890Z,10.90
2022-08-26T09:08:50.027Z,12.77
2022-08-26T09:11:19.553Z,10.40
2022-08-26T09:13:50.771Z,13.70
2022-08-26T09:16:23.171Z,14.40
2022-08-26T09:19:04.849Z,12.83
2022-08-26T09:21:33.686Z,11.93
2022-08-26T09:24:02.038Z,13.93
2022-08-26T09:26:42.329Z,12.10
2022-08-26T09:31:51.049Z,9.27
2022-08-26T09:34:21.906Z,11.10
2022-08-26T09:36:51.308Z,13.73
2022-08-26T09:39:33.422Z,17.13
2022-08-26T09:42:10.228Z,10.73
2022-08-26T09:44:54.366Z,11.53
2022-08-26T09:47:28.505Z,12.73
2022-08-26T09:50:04.236Z,16.87
2022-08-26T09:52:37.065Z,21.23
2022-08-26T09:55:11.271Z,13.93
2022-08-26T09:57:47.200Z,17.03
2022-08-26T10:00:27.645Z,12.33
2022-08-26T10:02:58.240Z,8.93
2022-08-26T10:05:44.899Z,7.67
2022-08-26T10:08:23.890Z,16.80
2022-08-26T10:10:53.144Z,13.87
2022-08-26T10:13:26.770Z,16.33
2022-08-26T10:16:05.683Z,9.90
2022-08-26T10:18:39.832Z,16.63
2022-08-26T10:21:11.948Z,9.57
2022-08-26T10:23:43.374Z,16.93
2022-08-26T10:26:17.297Z,13.73
2022-08-26T10:28:52.380Z,16.40
2022-08-26T10:31:28.438Z,10.53
2022-08-26T10:34:00.203Z,11.00
2022-08-26T10:37:13.948Z,22.57
2022-08-26T10:39:43.810Z,12.97
2022-08-26T10:42:22.471Z,11.23
2022-08-26T10:44:54.022Z,14.80
2022-08-26T10:47:31.662Z,14.13
2022-08-26T10:50:02.986Z,14.63
2022-08-26T10:52:45.722Z,11.80
2022-08-26T10:55:19.612Z,10.63
2022-08-26T10:58:06.594Z,11.87
2022-08-26T11:01:02.234Z,13.97
2022-08-26T11:03:42.370Z,8.67
2022-08-26T11:06:25.631Z,16.00
2022-08-26T11:08:54.774Z,13.73
2022-08-26T11:11:46.907Z,9.20
2022-08-26T11:14:46.226Z,12.53
2022-08-26T11:17:55.296Z,9.07
2022-08-26T11:20:35.159Z,12.70
2022-08-26T11:23:36.200Z,13.17
2022-08-26T11:26:43.257Z,12.20
2022-08-26T11:29:12.991Z,14.90
2022-08-26T11:31:56.692Z,8.93
2022-08-26T11:34:51.841Z,11.03
2022-08-26T11:39:57.150Z,9.23
2022-08-26T11:42:36.002Z,9.20
2022-08-26T11:45:14.338Z,9.23
2022-08-26T11:47:42.158Z,9.40
2022-08-26T11:50:13.559Z,11.20
2022-08-26T11:52:41.260Z,10.33
2022-08-26T11:55:11.763Z,10.53
2022-08-26T11:57:46.361Z,11.40
2022-08-26T12:00:22.277Z,9.57
2022-08-26T12:02:51.298Z,15.27
2022-08-26T12:05:27.216Z,13.70
2022-08-26T12:08:02.335Z,16.23
2022-08-26T12:10:33.553Z,12.27
2022-08-26T12:13:04.719Z,9.33
2022-08-26T12:15:35.453Z,9.20
2022-08-26T12:18:18.482Z,11.87
2022-08-26T12:20:56.695Z,9.50
2022-08-26T12:23:26.854Z,12.90
2022-08-26T12:26:05.260Z,10.70
2022-08-26T12:28:35.412Z,14.63
2022-08-26T12:31:05.592Z,14.93
2022-08-26T12:33:35.905Z,9.33
2022-08-26T12:36:05.171Z,8.70
2022-08-26T12:38:34.981Z,14.87
2022-08-26T12:41:02.761Z,8.70
2022-08-26T12:43:43.405Z,12.80
2022-08-26T12:46:13.587Z,8.57
2022-08-26T12:48:44.103Z,11.00
2022-08-26T12:51:27.862Z,14.10
2022-08-26T12:53:59.049Z,9.97
2022-08-26T12:56:30.906Z,9.57
2022-08-26T12:59:06.533Z,16.73
2022-08-26T13:01:40.453Z,13.90
2022-08-26T13:04:08.366Z,11.60
2022-08-26T13:06:36.057Z,9.30
2022-08-26T13:09:06.512Z,10.93
2022-08-26T13:11:36.394Z,8.40
2022-08-26T13:14:07.438Z,12.73
2022-08-26T13:16:36.357Z,13.20
2022-08-26T13:19:10.248Z,8.97
2022-08-26T13:21:42.910Z,12.00
2022-08-26T13:24:13.206Z,9.70
2022-08-26T13:26:41.660Z,7.33
2022-08-26T13:29:11.227Z,9.70
2022-08-26T13:31:41.921Z,6.70
2022-08-26T13:34:11.713Z,8.10
2022-08-26T13:36:39.813Z,9.00
2022-08-26T13:39:07.787Z,8.40
2022-08-26T13:41:36.240Z,8.70
2022-08-26T13:44:04.470Z,8.97
2022-08-26T13:46:33.902Z,8.60
2022-08-26T13:49:02.104Z,6.73
2022-08-26T13:51:31.312Z,10.27
2022-08-26T13:53:59.506Z,23.30
2022-08-26T13:56:29.482Z,16.40
2022-08-26T13:58:57.745Z,13.50
2022-08-26T14:01:25.778Z,10.67
2022-08-26T14:03:54.982Z,13.07
2022-08-26T14:06:23.002Z,10.20
2022-08-26T14:08:50.819Z,10.80
2022-08-26T14:11:20.046Z,11.50
2022-08-26T14:13:47.750Z,9.73
2022-08-26T14:16:22.362Z,13.00
2022-08-26T14:18:50.997Z,6.50
2022-08-26T14:21:20.562Z,9.50
2022-08-26T14:23:48.313Z,6.63
2022-08-26T14:26:21.432Z,10.53
2022-08-26T14:28:57.456Z,12.33
2022-08-26T14:31:26.839Z,5.83
2022-08-26T14:33:54.783Z,9.93
2022-08-26T14:36:31.329Z,11.07
2022-08-26T14:39:02.266Z,8.87
2022-08-26T14:41:30.823Z,9.30
2022-08-26T14:44:01.600Z,7.33
2022-08-26T14:46:32.430Z,11.03
2022-08-26T14:49:05.235Z,8.40
2022-08-26T14:51:36.395Z,9.10
2022-08-26T14:54:13.095Z,12.67
2022-08-26T14:56:44.415Z,10.37
2022-08-26T14:59:12.818Z,18.70
2022-08-26T15:01:40.878Z,11.03
2022-08-26T15:04:08.614Z,14.27
2022-08-26T15:06:38.142Z,16.10
2022-08-26T15:09:06.837Z,14.73
2022-08-26T15:11:34.515Z,11.73
2022-08-26T15:14:02.570Z,17.20
2022-08-26T15:16:30.694Z,15.67
2022-08-26T15:18:58.485Z,13.37
2022-08-26T15:21:27.008Z,15.97
2022-08-26T15:23:56.006Z,11.63
2022-08-26T15:26:24.220Z,12.33
2022-08-26T15:28:53.006Z,13.07
2022-08-26T15:31:26.590Z,15.77
2022-08-26T15:33:54.224Z,13.37
2022-08-26T15:36:21.902Z,12.17
2022-08-26T15:38:49.536Z,14.20
2022-08-26T15:41:18.553Z,10.30
2022-08-26T15:43:46.218Z,15.83
2022-08-26T15:46:14.624Z,8.23
2022-08-26T15:48:42.617Z,11.60
2022-08-26T15:51:21.616Z,10.27
2022-08-26T15:53:50.473Z,11.23
2022-08-26T15:56:19.949Z,14.03
2022-08-26T15:58:47.648Z,12.57
2022-08-26T16:01:23.991Z,15.00
2022-08-26T16:03:55.796Z,8.70
2022-08-26T16:06:25.959Z,12.00
2022-08-26T16:08:54.241Z,15.30
2022-08-26T16:11:23.558Z,20.57
2022-08-26T16:13:51.484Z,9.53
2022-08-26T16:16:20.352Z,12.40
2022-08-26T16:18:48.427Z,10.63
2022-08-26T16:21:17.282Z,14.20
2022-08-26T16:23:45.568Z,10.07
2022-08-26T16:26:16.312Z,8.80
2022-08-26T16:28:45.508Z,22.90
2022-08-26T16:31:14.141Z,15.00
2022-08-26T16:33:41.922Z,12.73
2022-08-26T16:36:10.818Z,17.00
2022-08-26T16:38:39.619Z,13.70
2022-08-26T16:41:08.682Z,7.50
2022-08-26T16:43:36.787Z,16.03
2022-08-26T16:46:08.116Z,13.73
2022-08-26T16:48:36.386Z,18.50
2022-08-26T16:51:04.219Z,20.43
2022-08-26T16:53:33.288Z,13.37
2022-08-26T16:56:00.987Z,14.87
2022-08-26T16:58:28.732Z,21.60
2022-08-26T17:00:57.320Z,16.17
2022-08-26T17:03:27.518Z,16.10
2022-08-26T17:05:55.211Z,13.40
2022-08-26T17:08:27.724Z,14.07
2022-08-26T17:10:56.819Z,18.20
2022-08-26T17:13:34.701Z,13.10
2022-08-26T17:16:05.306Z,15.57
2022-08-26T17:18:35.166Z,12.53
2022-08-26T17:21:04.778Z,12.23
2022-08-26T17:23:33.248Z,8.70
2022-08-26T17:26:01.011Z,13.23
2022-08-26T17:28:28.727Z,11.20
2022-08-26T17:30:57.254Z,12.23
2022-08-26T17:33:25.355Z,11.03
2022-08-26T17:35:54.875Z,13.37
2022-08-26T17:38:23.207Z,14.70
2022-08-26T17:40:51.217Z,12.63
2022-08-26T17:43:19.781Z,15.17
2022-08-26T17:45:48.008Z,11.53
2022-08-26T17:48:16.081Z,13.17
2022-08-26T17:50:49.336Z,17.63
2022-08-26T17:53:19.452Z,13.50
2022-08-26T17:55:47.657Z,9.87
2022-08-26T17:58:16.204Z,16.03
2022-08-26T18:00:44.995Z,15.77
2022-08-26T18:03:13.158Z,15.63
2022-08-26T18:05:41.185Z,13.80
2022-08-26T18:08:09.328Z,16.90
2022-08-26T18:10:38.502Z,12.93
2022-08-26T18:13:06.592Z,10.03
2022-08-26T18:15:34.588Z,16.63
2022-08-26T18:18:02.319Z,17.27
2022-08-26T18:20:30.135Z,14.80
2022-08-26T18:22:57.895Z,13.33
2022-08-26T18:25:25.874Z,10.93
2022-08-26T18:27:54.977Z,11.50
2022-08-26T18:30:23.714Z,10.00
2022-08-26T18:32:52.886Z,14.07
2022-08-26T18:35:21.969Z,12.13
2022-08-26T18:37:49.824Z,14.43
2022-08-26T18:40:17.762Z,12.00
2022-08-26T18:42:45.722Z,14.93
2022-08-26T18:45:18.671Z,8.67
2022-08-26T18:47:46.398Z,13.27
2022-08-26T18:50:14.612Z,12.33
2022-08-26T18:52:42.316Z,9.87
2022-08-26T18:55:10.800Z,12.90
2022-08-26T18:57:38.493Z,12.00
2022-08-26T19:00:07.779Z,10.33
2022-08-26T19:02:36.951Z,8.63
2022-08-26T19:05:08.037Z,20.30
2022-08-26T19:07:39.636Z,14.43
2022-08-26T19:10:08.376Z,15.83
2022-08-26T19:12:36.337Z,13.23
2022-08-26T19:15:04.284Z,12.80
2022-08-26T19:17:32.022Z,7.43
2022-08-26T19:20:01.078Z,10.10
2022-08-26T19:22:28.948Z,6.87
2022-08-26T19:24:56.741Z,6.30
2022-08-26T19:27:24.536Z,5.10
2022-08-26T19:29:52.229Z,4.20
2022-08-26T19:32:24.129Z,4.57
2022-08-26T19:34:52.034Z,8.97
2022-08-26T19:37:21.804Z,5.37
2022-08-26T19:39:49.707Z,9.33
2022-08-26T19:42:18.047Z,7.67
2022-08-26T19:45:03.724Z,8.00
2022-08-26T19:47:31.443Z,12.80
2022-08-26T19:49:59.199Z,8.43
2022-08-26T19:52:30.050Z,13.03
2022-08-26T19:54:58.173Z,4.37
2022-08-26T19:57:25.935Z,6.90
2022-08-26T19:59:53.662Z,7.43
2022-08-26T20:02:21.446Z,8.67
2022-08-26T20:04:49.176Z,7.87
2022-08-26T20:07:18.859Z,11.13
2022-08-26T20:09:48.949Z,8.90
2022-08-26T20:12:17.345Z,8.63
2022-08-26T20:14:45.386Z,7.47
2022-08-26T20:17:13.204Z,5.63
2022-08-26T20:19:58.927Z,8.00
2022-08-26T20:22:26.662Z,6.00
2022-08-26T20:24:55.693Z,8.33
2022-08-26T20:27:37.912Z,5.50
2022-08-26T20:30:09.251Z,5.93
2022-08-26T20:32:38.379Z,7.23
2022-08-26T20:35:08.187Z,11.77
2022-08-26T20:37:35.951Z,8.93
2022-08-26T20:40:08.358Z,22.10
2022-08-26T20:42:36.166Z,12.93
2022-08-26T20:45:04.221Z,12.10
2022-08-26T20:47:31.978Z,8.77
2022-08-26T20:49:59.860Z,18.43
2022-08-26T20:52:27.886Z,15.90
2022-08-26T20:54:55.687Z,13.60
2022-08-26T20:57:24.792Z,10.10
2022-08-26T20:59:52.494Z,8.73
2022-08-26T21:02:20.276Z,11.53
2022-08-26T21:04:48.030Z,6.77
2022-08-26T21:07:15.747Z,7.87
2022-08-26T21:09:45.500Z,12.70
2022-08-26T21:12:13.569Z,6.60
2022-08-26T21:14:44.768Z,14.80
2022-08-26T21:17:15.499Z,8.53
2022-08-26T21:19:43.220Z,10.63
2022-08-26T21:22:12.317Z,11.13
2022-08-26T21:24:40.113Z,9.90
2022-08-26T21:27:07.995Z,8.20
2022-08-26T21:29:36.734Z,13.80
2022-08-26T21:32:06.439Z,9.13
2022-08-26T21:34:34.174Z,7.00
2022-08-26T21:37:02.044Z,8.10
2022-08-26T21:39:36.665Z,6.43
2022-08-26T21:42:07.703Z,10.10
2022-08-26T21:44:35.376Z,9.57
2022-08-26T21:47:03.443Z,6.73
2022-08-26T21:49:32.601Z,7.13
2022-08-26T21:52:01.595Z,8.00
2022-08-26T21:54:29.359Z,6.67
2022-08-26T21:56:57.243Z,8.90
2022-08-26T21:59:25.931Z,14.20
2022-08-26T22:01:54.511Z,10.97
2022-08-26T22:04:22.398Z,10.57
2022-08-26T22:06:54.279Z,15.13
2022-08-26T22:09:24.723Z,11.47
2022-08-26T22:11:53.381Z,10.73
2022-08-26T22:14:23.949Z,14.23
2022-08-26T22:16:54.894Z,12.03
2022-08-26T22:19:23.655Z,8.57
2022-08-26T22:21:55.888Z,11.53
2022-08-26T22:24:26.388Z,12.93
2022-08-26T22:26:54.974Z,12.13
2022-08-26T22:29:24.301Z,8.97
2022-08-26T22:31:52.456Z,13.50
2022-08-26T22:34:21.094Z,13.10
2022-08-26T22:36:49.995Z,11.80
2022-08-26T22:39:22.087Z,14.33
2022-08-26T22:41:50.123Z,14.10
2022-08-26T22:44:19.023Z,12.20
2022-08-26T22:46:48.228Z,12.73
2022-08-26T22:49:16.876Z,18.03
2022-08-26T22:51:45.253Z,14.07
2022-08-26T22:54:13.113Z,12.50
2022-08-26T22:56:42.629Z,16.67
2022-08-26T22:59:10.918Z,18.73
2022-08-26T23:01:40.759Z,13.03
2022-08-26T23:04:08.658Z,10.47
2022-08-26T23:06:40.428Z,15.63
2022-08-26T23:09:08.992Z,11.30
2022-08-26T23:11:38.566Z,15.83
2022-08-26T23:14:11.979Z,16.03
2022-08-26T23:16:41.745Z,13.00
2022-08-26T23:19:10.732Z,12.47
2022-08-26T23:21:38.564Z,13.93
2022-08-26T23:24:07.200Z,10.93
2022-08-26T23:26:35.414Z,18.40
2022-08-26T23:29:03.669Z,18.53
2022-08-26T23:31:33.310Z,13.83
2022-08-26T23:34:18.599Z,14.10
2022-08-26T23:36:47.234Z,12.53
2022-08-26T23:39:15.122Z,13.33
2022-08-26T23:41:43.247Z,11.97
2022-08-26T23:44:12.244Z,14.23
2022-08-26T23:46:41.303Z,10.40
2022-08-26T23:49:09.130Z,12.57
2022-08-26T23:51:54.367Z,12.00
2022-08-26T23:54:22.107Z,12.50
2022-08-26T23:56:50.469Z,9.27
2022-08-26T23:59:18.253Z,10.53
